Time;durP1;ratioP1;P1;durP2;ratioP2;P2;SDS_P1;SDS_P2;PMS_P1;PMS_P2;Temp;Humidity;BMP_temperature;BMP_pressure;BME280_temperature;BME280_humidity;BME280_pressure;Samples;Min_cycle;Max_cycle;Signal;HPM_P1;HPM_P2
2023/06/02 00:01:36;;;;;;;1.50;0.60;;;;;;;14.56;100.00;99263.31;105318;1257;74220;-45
2023/06/02 00:04:04;;;;;;;1.90;0.50;;;;;;;14.57;100.00;99264.85;105011;1261;65691;-47
2023/06/02 00:06:33;;;;;;;2.50;0.60;;;;;;;14.58;100.00;99260.09;108835;1256;71096;-46
2023/06/02 00:09:04;;;;;;;1.60;0.70;;;;;;;14.56;100.00;99263.84;108830;1256;60116;-45
2023/06/02 00:11:36;;;;;;;2.50;0.70;;;;;;;14.51;100.00;99258.83;107413;1258;60531;-46
2023/06/02 00:14:05;;;;;;;4.60;0.60;;;;;;;14.47;100.00;99258.95;104862;1257;72933;-46
2023/06/02 00:16:42;;;;;;;2.30;0.60;;;;;;;14.45;100.00;99257.11;105425;1256;65977;-45
2023/06/02 00:19:11;;;;;;;4.20;0.60;;;;;;;14.44;100.00;99256.65;105797;1257;72961;-46
2023/06/02 00:21:41;;;;;;;1.50;0.70;;;;;;;14.44;100.00;99256.48;105402;1262;60501;-45
2023/06/02 00:24:09;;;;;;;2.80;0.70;;;;;;;14.42;100.00;99260.21;104846;1256;62197;-46
2023/06/02 00:26:37;;;;;;;3.00;0.70;;;;;;;14.41;100.00;99258.44;105207;1256;72870;-45
2023/06/02 00:29:04;;;;;;;1.50;0.60;;;;;;;14.42;100.00;99260.39;105281;1261;66554;-45
2023/06/02 00:31:32;;;;;;;2.70;0.60;;;;;;;14.43;100.00;99259.44;104961;1257;74834;-46
2023/06/02 00:33:59;;;;;;;2.00;0.60;;;;;;;14.43;100.00;99257.97;104968;1260;62214;-45
2023/06/02 00:36:27;;;;;;;1.30;0.60;;;;;;;14.42;100.00;99256.56;104913;1256;60594;-44
2023/06/02 00:38:54;;;;;;;0.90;0.60;;;;;;;14.43;100.00;99257.98;105209;1261;75607;-44
2023/06/02 00:42:06;;;;;;;1.40;0.80;;;;;;;14.46;100.00;99246.91;101350;1294;600846;-46
2023/06/02 00:44:34;;;;;;;1.40;0.60;;;;;;;14.45;100.00;99252.95;104401;1270;59309;-48
2023/06/02 00:47:01;;;;;;;1.70;0.60;;;;;;;14.47;100.00;99253.88;104111;1266;59008;-44
2023/06/02 00:49:28;;;;;;;4.40;0.60;;;;;;;14.48;100.00;99255.95;104782;1266;70857;-48
2023/06/02 00:51:56;;;;;;;2.10;0.60;;;;;;;14.49;100.00;99251.91;104379;1267;67443;-44
2023/06/02 00:54:23;;;;;;;2.80;0.70;;;;;;;14.51;100.00;99256.31;104174;1273;71272;-46
2023/06/02 00:56:51;;;;;;;2.10;0.60;;;;;;;14.53;100.00;99257.45;104001;1271;126999;-49
2023/06/02 00:59:19;;;;;;;2.10;0.80;;;;;;;14.54;100.00;99256.82;108401;1264;59380;-48
2023/06/02 01:01:48;;;;;;;3.80;0.80;;;;;;;14.54;100.00;99253.00;108325;1264;72196;-46
2023/06/02 01:04:16;;;;;;;1.50;0.50;;;;;;;14.55;100.00;99251.85;108350;1264;68073;-46
2023/06/02 01:06:44;;;;;;;1.90;0.60;;;;;;;14.55;100.00;99255.59;108449;1264;70724;-45
2023/06/02 01:09:13;;;;;;;2.90;0.70;;;;;;;14.55;100.00;99257.40;108332;1265;60002;-47
2023/06/02 01:11:40;;;;;;;2.30;0.70;;;;;;;14.56;100.00;99253.00;105577;1266;59689;-44
2023/06/02 01:14:09;;;;;;;4.80;0.70;;;;;;;14.58;100.00;99253.08;104516;1267;73036;-48
2023/06/02 01:16:38;;;;;;;1.30;0.60;;;;;;;14.58;100.00;99253.06;105928;1267;66321;-45
2023/06/02 01:19:06;;;;;;;1.50;0.60;;;;;;;14.57;100.00;99250.77;108032;1266;72114;-46
2023/06/02 01:21:37;;;;;;;4.90;0.70;;;;;;;14.57;100.00;99251.52;104453;1268;59825;-49
2023/06/02 01:24:06;;;;;;;3.60;0.50;;;;;;;14.56;100.00;99252.33;105774;1264;60206;-46
2023/06/02 01:26:36;;;;;;;3.60;0.50;;;;;;;14.54;100.00;99251.54;105168;1266;72783;-46
2023/06/02 01:29:04;;;;;;;1.10;0.60;;;;;;;14.51;100.00;99253.76;104632;1268;67516;-46
2023/06/02 01:31:38;;;;;;;1.00;0.50;;;;;;;14.48;100.00;99252.86;105118;1262;72594;-44
2023/06/02 01:34:29;;;;;;;;;;;;;;;14.45;100.00;99248.95;105485;1258;59760;-45
2023/06/02 01:36:57;;;;;;;1.20;0.60;;;;;;;14.42;100.00;99251.55;104893;1256;60856;-44
2023/06/02 01:39:26;;;;;;;2.40;0.60;;;;;;;14.39;100.00;99250.98;105020;1258;72196;-46
2023/06/02 01:41:54;;;;;;;1.20;0.60;;;;;;;14.38;100.00;99250.53;105031;1258;67673;-45
2023/06/02 01:44:21;;;;;;;1.70;0.60;;;;;;;14.36;100.00;99250.42;105294;1257;73017;-48
2023/06/02 01:46:49;;;;;;;2.60;0.70;;;;;;;14.35;100.00;99253.58;104955;1264;60341;-46
2023/06/02 01:49:17;;;;;;;1.40;0.70;;;;;;;14.35;100.00;99253.96;105083;1261;59982;-46
2023/06/02 01:51:44;;;;;;;2.90;0.70;;;;;;;14.35;100.00;99255.23;105416;1259;71748;-45
2023/06/02 01:54:12;;;;;;;0.70;0.50;;;;;;;14.34;100.00;99254.02;105071;1262;66003;-45
2023/06/02 01:56:39;;;;;;;4.60;0.80;;;;;;;14.34;100.00;99255.13;105162;1259;73211;-48
2023/06/02 01:59:07;;;;;;;4.40;0.60;;;;;;;14.33;100.00;99252.48;104815;1259;59600;-47
2023/06/02 02:01:36;;;;;;;1.80;0.70;;;;;;;14.32;100.00;99250.70;108794;1257;58081;-49
2023/06/02 02:04:04;;;;;;;1.60;0.60;;;;;;;14.32;100.00;99246.91;108807;1258;71636;-49
2023/06/02 02:06:32;;;;;;;4.40;0.50;;;;;;;14.33;100.00;99247.09;108794;1259;66735;-49
2023/06/02 02:08:59;;;;;;;1.00;0.60;;;;;;;14.34;100.00;99250.61;108788;1257;72521;-49
2023/06/02 02:11:27;;;;;;;4.30;0.70;;;;;;;14.35;100.00;99247.85;108714;1257;60372;-49
2023/06/02 02:13:54;;;;;;;1.50;0.50;;;;;;;14.36;100.00;99249.39;108763;1257;60771;-50
2023/06/02 02:16:22;;;;;;;1.20;0.70;;;;;;;14.37;100.00;99247.88;108814;1257;73252;-48
2023/06/02 02:18:52;;;;;;;1.90;0.60;;;;;;;14.39;100.00;99246.47;108778;1257;65606;-49
2023/06/02 02:21:20;;;;;;;2.90;0.60;;;;;;;14.41;100.00;99245.09;108702;1262;72853;-49
2023/06/02 02:23:48;;;;;;;2.20;0.50;;;;;;;14.44;100.00;99246.19;108755;1258;58589;-49
2023/06/02 02:26:16;;;;;;;6.30;0.80;;;;;;;14.44;100.00;99249.73;108734;1257;60614;-49
2023/06/02 02:28:44;;;;;;;0.80;0.60;;;;;;;14.46;100.00;99246.02;106071;1259;73008;-48
2023/06/02 02:31:11;;;;;;;0.70;0.50;;;;;;;14.47;100.00;99245.73;105053;1259;66249;-48
2023/06/02 02:33:39;;;;;;;2.10;0.80;;;;;;;14.49;100.00;99245.80;108666;1259;73014;-49
2023/06/02 02:36:08;;;;;;;1.70;0.70;;;;;;;14.50;100.00;99241.77;108697;1257;60511;-49
2023/06/02 02:38:36;;;;;;;2.90;0.60;;;;;;;14.49;100.00;99241.98;108629;1263;62314;-49
2023/06/02 02:41:04;;;;;;;1.00;0.60;;;;;;;14.50;100.00;99244.45;107523;1259;72865;-49
2023/06/02 02:43:31;;;;;;;0.60;0.40;;;;;;;14.50;100.00;99242.05;104709;1262;68159;-48
2023/06/02 02:45:59;;;;;;;2.30;0.70;;;;;;;14.53;100.00;99241.34;105028;1258;72700;-48
2023/06/02 02:48:27;;;;;;;2.20;0.60;;;;;;;14.55;100.00;99246.58;105512;1259;60187;-48
2023/06/02 02:50:55;;;;;;;2.90;0.60;;;;;;;14.59;100.00;99247.60;105124;1264;59682;-48
2023/06/02 02:53:23;;;;;;;2.30;1.00;;;;;;;14.62;100.00;99248.81;106689;1259;73700;-49
2023/06/02 02:55:51;;;;;;;2.10;0.70;;;;;;;14.65;100.00;99248.39;105127;1259;66935;-48
2023/06/02 02:58:19;;;;;;;1.70;0.60;;;;;;;14.68;100.00;99245.44;105962;1259;72230;-49
2023/06/02 03:00:47;;;;;;;1.10;0.50;;;;;;;14.73;100.00;99245.45;105071;1263;60619;-48
2023/06/02 03:03:16;;;;;;;1.80;0.60;;;;;;;14.77;100.00;99244.08;105563;1259;62672;-47
2023/06/02 03:05:45;;;;;;;1.30;0.60;;;;;;;14.82;100.00;99245.33;105304;1258;72038;-47
2023/06/02 03:08:12;;;;;;;1.70;0.60;;;;;;;14.86;100.00;99241.77;106199;1257;66067;-48
2023/06/02 03:10:41;;;;;;;1.80;0.50;;;;;;;14.91;100.00;99243.01;105407;1259;72862;-49
2023/06/02 03:13:08;;;;;;;1.10;0.50;;;;;;;14.96;100.00;99240.84;104561;1259;59929;-48
2023/06/02 03:15:36;;;;;;;5.20;0.60;;;;;;;15.02;100.00;99244.19;104595;1258;59215;-49
2023/06/02 03:18:03;;;;;;;2.20;0.50;;;;;;;15.08;100.00;99244.83;104901;1264;71604;-48
2023/06/02 03:20:31;;;;;;;4.10;0.50;;;;;;;15.13;100.00;99245.02;104770;1260;68096;-49
2023/06/02 03:22:59;;;;;;;4.10;0.50;;;;;;;15.18;100.00;99245.69;104767;1262;71596;-50
2023/06/02 03:25:27;;;;;;;3.30;0.60;;;;;;;15.24;100.00;99240.03;104315;1259;61485;-48
2023/06/02 03:27:55;;;;;;;3.60;0.70;;;;;;;15.29;100.00;99241.28;104422;1259;60082;-48
2023/06/02 03:30:23;;;;;;;0.80;0.50;;;;;;;15.34;100.00;99235.63;104492;1257;73008;-48
2023/06/02 03:32:54;;;;;;;4.00;0.50;;;;;;;15.40;100.00;99233.54;104980;1265;69014;-48
2023/06/02 03:35:22;;;;;;;0.80;0.50;;;;;;;15.45;100.00;99232.41;105253;1259;72749;-48
2023/06/02 03:37:49;;;;;;;3.00;0.50;;;;;;;15.51;100.00;99231.95;104845;1264;60463;-48
2023/06/02 03:40:17;;;;;;;0.80;0.60;;;;;;;15.57;100.00;99237.15;104656;1260;60385;-49
2023/06/02 03:42:44;;;;;;;4.70;0.60;;;;;;;15.63;100.00;99238.30;104512;1259;72461;-49
2023/06/02 03:45:11;;;;;;;1.50;0.70;;;;;;;15.69;100.00;99236.41;104699;1259;68180;-48
2023/06/02 03:47:40;;;;;;;0.90;0.50;;;;;;;15.75;100.00;99240.45;105376;1259;72759;-49
2023/06/02 03:50:09;;;;;;;3.60;0.60;;;;;;;15.81;100.00;99236.70;104855;1265;59623;-49
2023/06/02 03:52:37;;;;;;;5.40;0.80;;;;;;;15.87;100.00;99237.48;104943;1259;59949;-48
2023/06/02 03:55:05;;;;;;;2.80;0.60;;;;;;;15.94;100.00;99233.91;104912;1259;72951;-48
2023/06/02 04:00:10;;;;;;;5.20;0.60;;;;;;;16.09;100.00;99234.36;101341;1295;600593;-48
2023/06/02 04:02:41;;;;;;;4.60;0.60;;;;;;;16.14;100.00;99238.27;104976;1270;59337;-46
2023/06/02 04:05:14;;;;;;;1.00;0.40;;;;;;;16.21;100.00;99236.63;108336;1266;57987;-48
2023/06/02 04:07:42;;;;;;;2.50;0.50;;;;;;;16.28;100.00;99239.67;104983;1273;72965;-48
2023/06/02 04:10:10;;;;;;;2.40;0.80;;;;;;;16.36;100.00;99237.78;104607;1276;67615;-47
2023/06/02 04:12:37;;;;;;;2.30;0.90;;;;;;;16.44;100.00;99234.94;104467;1273;238202;-47
2023/06/02 04:15:06;;;;;;;8.60;0.60;;;;;;;16.52;100.00;99235.95;104747;1269;60202;-47
2023/06/02 04:17:34;;;;;;;0.80;0.50;;;;;;;16.59;100.00;99232.48;108417;1267;61555;-48
2023/06/02 04:20:02;;;;;;;2.50;0.60;;;;;;;16.66;100.00;99226.48;108381;1271;71540;-49
2023/06/02 04:22:34;;;;;;;3.10;0.50;;;;;;;16.76;100.00;99229.89;108327;1266;66671;-49
2023/06/02 04:25:01;;;;;;;3.60;0.60;;;;;;;16.83;100.00;99231.06;106502;1267;74984;-46
2023/06/02 04:27:29;;;;;;;2.40;0.60;;;;;;;16.91;100.00;99230.23;105141;1273;60122;-47
2023/06/02 04:29:58;;;;;;;0.90;0.50;;;;;;;16.99;100.00;99229.39;104743;1272;59740;-48
2023/06/02 04:32:25;;;;;;;1.80;0.50;;;;;;;17.08;100.00;99230.65;105351;1258;74085;-47
2023/06/02 04:34:53;;;;;;;2.60;0.50;;;;;;;17.16;100.00;99229.77;105318;1270;67748;-47
2023/06/02 04:37:20;;;;;;;0.90;0.50;;;;;;;17.25;100.00;99229.39;105251;1264;74443;-46
2023/06/02 04:39:51;;;;;;;4.30;0.60;;;;;;;17.34;100.00;99226.59;105328;1262;60208;-48
2023/06/02 04:42:21;;;;;;;3.30;0.70;;;;;;;17.43;100.00;99230.77;106012;1263;60028;-47
2023/06/02 04:44:51;;;;;;;1.10;0.60;;;;;;;17.52;100.00;99231.30;106938;1258;72850;-46
2023/06/02 04:47:19;;;;;;;0.70;0.50;;;;;;;17.61;100.00;99231.90;105687;1261;68128;-48
2023/06/02 04:49:46;;;;;;;1.60;0.60;;;;;;;17.71;100.00;99228.55;105264;1270;74878;-46
2023/06/02 04:52:14;;;;;;;2.00;0.60;;;;;;;17.80;100.00;99229.40;105322;1260;61117;-48
2023/06/02 04:54:42;;;;;;;1.80;0.60;;;;;;;17.88;100.00;99225.96;108580;1257;59283;-49
2023/06/02 04:57:09;;;;;;;4.50;0.60;;;;;;;17.97;100.00;99226.26;105440;1263;72315;-49
2023/06/02 04:59:37;;;;;;;3.50;0.60;;;;;;;18.06;100.00;99225.28;105221;1259;66303;-47
2023/06/02 05:02:07;;;;;;;1.50;0.60;;;;;;;18.16;100.00;99224.77;105088;1260;73035;-48
2023/06/02 05:04:35;;;;;;;1.80;0.50;;;;;;;18.28;100.00;99226.27;105891;1257;61233;-47
2023/06/02 05:07:04;;;;;;;5.60;0.70;;;;;;;18.40;100.00;99225.21;105273;1267;59711;-48
2023/06/02 05:09:32;;;;;;;4.80;0.70;;;;;;;18.52;100.00;99229.61;105290;1264;71879;-47
2023/06/02 05:12:00;;;;;;;2.10;0.60;;;;;;;18.63;100.00;99228.42;105424;1261;67455;-50
2023/06/02 05:14:27;;;;;;;1.60;0.70;;;;;;;18.74;100.00;99224.51;105395;1261;75264;-49
2023/06/02 05:16:55;;;;;;;1.20;0.60;;;;;;;18.86;100.00;99231.80;105217;1264;59829;-48
2023/06/02 05:19:23;;;;;;;2.60;0.90;;;;;;;19.00;100.00;99230.58;105199;1260;59749;-49
2023/06/02 05:21:50;;;;;;;0.90;0.50;;;;;;;19.11;100.00;99228.73;105056;1261;74363;-48
2023/06/02 05:24:18;;;;;;;3.00;0.60;;;;;;;19.24;100.00;99230.52;105491;1258;66312;-47
2023/06/02 05:26:45;;;;;;;2.60;0.60;;;;;;;19.35;100.00;99226.75;104843;1258;73224;-47
2023/06/02 05:29:13;;;;;;;8.90;0.80;;;;;;;19.47;100.00;99226.94;105231;1262;59619;-45
2023/06/02 05:31:40;;;;;;;5.20;0.70;;;;;;;19.59;100.00;99225.27;105378;1258;59857;-48
2023/06/02 05:34:08;;;;;;;4.70;0.70;;;;;;;19.72;100.00;99224.97;105350;1260;72236;-47
2023/06/02 05:36:35;;;;;;;6.70;0.70;;;;;;;19.83;100.00;99224.41;105204;1261;70395;-48
2023/06/02 05:39:03;;;;;;;2.00;0.70;;;;;;;19.97;100.00;99225.61;105362;1258;73220;-49
2023/06/02 05:41:30;;;;;;;6.00;1.30;;;;;;;20.09;100.00;99225.95;105282;1257;59723;-47
2023/06/02 05:43:58;;;;;;;2.70;0.80;;;;;;;20.21;100.00;99226.36;105287;1261;59701;-46
2023/06/02 05:46:26;;;;;;;13.00;0.70;;;;;;;20.32;100.00;99224.77;105174;1263;72860;-46
2023/06/02 05:48:54;;;;;;;1.00;0.60;;;;;;;20.42;100.00;99226.20;105057;1264;68158;-48
2023/06/02 05:51:21;;;;;;;2.70;0.60;;;;;;;20.53;100.00;99225.15;106186;1261;72984;-49
2023/06/02 05:53:50;;;;;;;12.30;1.40;;;;;;;20.65;100.00;99230.52;105201;1260;60653;-48
2023/06/02 05:56:18;;;;;;;2.40;0.60;;;;;;;20.77;100.00;99223.52;105173;1263;59650;-50
2023/06/02 05:58:46;;;;;;;1.10;0.70;;;;;;;20.90;100.00;99225.15;105485;1260;73014;-49
2023/06/02 06:01:14;;;;;;;4.30;0.70;;;;;;;21.01;100.00;99224.86;105482;1257;68981;-48
2023/06/02 06:03:42;;;;;;;1.20;0.80;;;;;;;21.12;100.00;99229.44;105191;1261;72593;-50
2023/06/02 06:06:10;;;;;;;2.60;0.70;;;;;;;21.24;100.00;99230.84;105582;1261;59759;-48
2023/06/02 06:08:37;;;;;;;2.50;0.80;;;;;;;21.37;100.00;99228.08;105407;1260;60569;-50
2023/06/02 06:11:04;;;;;;;3.20;1.10;;;;;;;21.47;100.00;99224.63;104990;1263;72915;-48
2023/06/02 06:13:32;;;;;;;2.10;1.10;;;;;;;21.59;100.00;99230.61;105396;1261;68038;-48
2023/06/02 06:16:00;;;;;;;1.30;0.70;;;;;;;21.68;100.00;99232.00;105299;1263;72683;-49
2023/06/02 06:18:28;;;;;;;2.50;0.60;;;;;;;21.77;100.00;99238.89;105203;1260;60698;-48
2023/06/02 06:20:56;;;;;;;4.30;0.60;;;;;;;21.87;100.00;99234.59;105171;1261;59676;-48
2023/06/02 06:23:24;;;;;;;0.60;0.50;;;;;;;21.98;100.00;99232.05;105240;1257;73789;-49
2023/06/02 06:25:52;;;;;;;1.60;0.60;;;;;;;22.08;100.00;99229.51;105469;1260;69290;-50
2023/06/02 06:28:20;;;;;;;2.80;0.60;;;;;;;22.18;100.00;99227.73;104822;1261;71333;-49
2023/06/02 06:30:49;;;;;;;0.80;0.60;;;;;;;22.26;100.00;99223.75;106672;1260;60412;-49
2023/06/02 06:33:16;;;;;;;1.50;0.50;;;;;;;22.36;100.00;99225.86;105758;1258;61455;-48
2023/06/02 06:35:44;;;;;;;5.90;0.60;;;;;;;22.44;100.00;99223.87;105051;1263;73133;-48
2023/06/02 06:38:12;;;;;;;4.60;0.90;;;;;;;22.53;100.00;99221.48;105607;1260;68355;-49
2023/06/02 06:40:39;;;;;;;0.80;0.60;;;;;;;22.61;100.00;99223.11;105250;1257;73039;-47
2023/06/02 06:43:07;;;;;;;1.30;0.70;;;;;;;22.70;100.00;99226.05;105183;1261;59688;-51
2023/06/02 06:46:16;;;;;;;2.70;0.70;;;;;;;22.83;100.00;99225.65;106818;1257;60501;-50
2023/06/02 06:48:45;;;;;;;2.00;1.10;;;;;;;22.90;100.00;99223.73;108873;1256;72501;-50
2023/06/02 06:51:15;;;;;;;2.80;0.70;;;;;;;22.99;100.00;99225.86;106499;1260;68263;-49
2023/06/02 06:53:43;;;;;;;3.90;0.50;;;;;;;23.07;100.00;99225.00;105175;1260;72418;-49
2023/06/02 06:56:10;;;;;;;1.70;0.60;;;;;;;23.14;100.00;99226.37;104762;1257;60284;-49
2023/06/02 06:58:37;;;;;;;1.70;0.50;;;;;;;23.22;100.00;99224.58;105098;1260;59705;-49
2023/06/02 07:01:05;;;;;;;4.60;0.80;;;;;;;23.30;100.00;99223.67;105210;1260;75093;-48
2023/06/02 07:03:32;;;;;;;1.10;0.50;;;;;;;23.39;100.00;99223.31;105042;1257;67461;-49
2023/06/02 07:06:00;;;;;;;8.00;0.60;;;;;;;23.48;100.00;99222.23;105044;1260;70377;-50
2023/06/02 07:08:29;;;;;;;1.30;0.60;;;;;;;23.57;100.00;99222.29;105236;1260;59753;-49
2023/06/02 07:10:57;;;;;;;16.40;1.40;;;;;;;23.67;100.00;99217.63;105047;1262;60045;-49
2023/06/02 07:13:25;;;;;;;2.20;0.50;;;;;;;23.80;100.00;99223.19;105251;1257;73009;-49
2023/06/02 07:15:52;;;;;;;0.70;0.60;;;;;;;23.92;100.00;99226.20;105264;1260;68392;-50
2023/06/02 07:18:20;;;;;;;6.40;0.90;;;;;;;24.01;100.00;99221.90;105070;1260;73449;-50
2023/06/02 07:20:48;;;;;;;3.40;0.60;;;;;;;24.09;100.00;99218.95;104928;1260;60682;-49
2023/06/02 07:23:16;;;;;;;2.90;0.70;;;;;;;24.18;100.00;99219.80;105114;1260;59608;-49
2023/06/02 07:25:43;;;;;;;2.90;0.50;;;;;;;24.26;100.00;99219.52;105076;1257;73420;-49
2023/06/02 07:28:10;;;;;;;4.60;0.50;;;;;;;24.31;100.00;99216.55;105161;1258;66320;-51
2023/06/02 07:30:47;;;;;;;4.00;0.50;;;;;;;24.37;100.00;99213.79;105138;1260;73504;-49
2023/06/02 07:33:34;;;;;;;4.80;0.50;;;;;;;24.47;100.00;99217.06;107260;1257;61055;-50
2023/06/02 07:36:02;;;;;;;1.60;0.60;;;;;;;24.54;100.00;99210.55;105309;1260;59631;-48
2023/06/02 07:38:29;;;;;;;0.70;0.60;;;;;;;24.61;100.00;99217.67;105303;1257;72014;-50
2023/06/02 07:40:57;;;;;;;1.50;0.60;;;;;;;24.64;100.00;99214.48;105210;1261;66080;-48
2023/06/02 07:43:24;;;;;;;1.30;0.70;;;;;;;24.68;100.00;99210.05;105228;1257;71614;-49
2023/06/02 07:45:51;;;;;;;2.80;0.50;;;;;;;24.72;100.00;99209.05;105365;1257;59617;-50
2023/06/02 07:48:19;;;;;;;2.70;0.50;;;;;;;24.79;100.00;99218.11;105325;1260;59657;-49
2023/06/02 07:50:46;;;;;;;2.00;0.50;;;;;;;24.85;100.00;99211.82;105238;1257;72424;-50
2023/06/02 07:53:14;;;;;;;4.40;0.80;;;;;;;24.92;100.00;99208.41;105299;1258;65628;-48
2023/06/02 07:55:43;;;;;;;2.00;0.50;;;;;;;24.99;100.00;99207.99;105481;1256;71577;-50
2023/06/02 07:58:10;;;;;;;2.10;0.60;;;;;;;25.06;100.00;99209.30;106273;1257;61444;-50
2023/06/02 08:00:38;;;;;;;0.70;0.50;;;;;;;25.09;100.00;99206.58;105305;1256;60006;-48
2023/06/02 08:03:07;;;;;;;1.10;0.40;;;;;;;25.10;100.00;99202.73;105261;1257;72937;-49
2023/06/02 08:05:35;;;;;;;3.20;0.50;;;;;;;25.17;100.00;99200.84;107140;1257;69021;-50
2023/06/02 08:08:02;;;;;;;4.90;0.50;;;;;;;25.26;100.00;99210.95;105327;1261;71658;-51
2023/06/02 08:10:30;;;;;;;3.30;0.80;;;;;;;25.32;100.00;99204.89;105158;1257;60546;-52
2023/06/02 08:12:57;;;;;;;5.20;0.70;;;;;;;25.38;100.00;99196.10;105335;1257;60549;-51
2023/06/02 08:15:25;;;;;;;3.30;0.60;;;;;;;25.46;100.00;99195.54;105254;1257;73760;-48
2023/06/02 08:17:52;;;;;;;1.50;0.40;;;;;;;25.56;100.00;99202.65;105225;1258;66198;-51
2023/06/02 08:20:20;;;;;;;2.40;0.40;;;;;;;25.65;100.00;99199.16;105132;1261;74963;-49
2023/06/02 08:22:48;;;;;;;0.90;0.40;;;;;;;25.73;100.00;99196.55;105704;1256;61866;-51
2023/06/02 08:25:16;;;;;;;1.60;0.40;;;;;;;25.81;100.00;99192.70;104760;1257;60535;-50
2023/06/02 08:27:44;;;;;;;3.40;0.50;;;;;;;25.87;100.00;99189.92;105278;1261;74308;-50
2023/06/02 08:30:12;;;;;;;1.00;0.40;;;;;;;25.90;100.00;99187.14;105091;1257;67826;-51
2023/06/02 08:32:40;;;;;;;4.20;0.40;;;;;;;25.91;100.00;99190.83;105458;1257;72657;-51
2023/06/02 08:35:07;;;;;;;2.60;0.50;;;;;;;25.88;100.00;99191.36;104830;1258;60530;-51
2023/06/02 08:37:35;;;;;;;3.80;0.60;;;;;;;25.82;100.00;99189.39;105031;1260;60414;-50
2023/06/02 08:40:04;;;;;;;2.10;0.60;;;;;;;25.77;100.00;99188.19;105035;1261;73895;-51
2023/06/02 08:42:32;;;;;;;5.40;0.50;;;;;;;25.76;100.00;99189.48;104676;1257;69145;-49
2023/06/02 08:44:59;;;;;;;2.30;0.60;;;;;;;25.79;100.00;99188.13;104656;1257;72876;-51
2023/06/02 08:47:28;;;;;;;1.70;0.40;;;;;;;25.85;100.00;99185.70;105036;1260;60656;-51
2023/06/02 08:49:56;;;;;;;1.00;0.40;;;;;;;25.92;100.00;99181.54;105058;1257;62638;-52
2023/06/02 08:52:25;;;;;;;5.10;0.90;;;;;;;25.98;100.00;99178.45;104900;1256;73515;-50
2023/06/02 08:54:54;;;;;;;3.20;0.40;;;;;;;26.01;100.00;99180.46;105303;1260;66169;-50
2023/06/02 08:57:22;;;;;;;1.40;0.50;;;;;;;26.02;100.00;99173.69;104968;1257;71212;-50
2023/06/02 08:59:50;;;;;;;1.60;0.40;;;;;;;26.02;100.00;99168.53;105550;1263;62242;-50
2023/06/02 09:02:18;;;;;;;0.80;0.50;;;;;;;26.04;100.00;99170.33;105369;1257;60593;-52
2023/06/02 09:04:46;;;;;;;0.70;0.50;;;;;;;26.08;100.00;99170.75;105008;1257;72651;-52
2023/06/02 09:07:15;;;;;;;1.00;0.50;;;;;;;26.13;100.00;99164.32;105185;1260;65322;-52
2023/06/02 09:09:52;;;;;;;1.40;0.50;;;;;;;26.17;100.00;99170.77;105245;1257;75621;-51
2023/06/02 09:12:23;;;;;;;0.70;0.40;;;;;;;26.20;100.00;99167.59;105189;1260;60379;-51
2023/06/02 09:15:08;;;;;;;1.40;0.50;;;;;;;26.26;100.00;99166.20;105231;1260;60309;-52
2023/06/02 09:17:37;;;;;;;0.50;0.40;;;;;;;26.29;100.00;99158.46;107106;1256;73649;-52
2023/06/02 09:20:09;;;;;;;0.90;0.40;;;;;;;26.32;100.00;99158.50;104763;1257;66309;-50
2023/06/02 09:22:52;;;;;;;3.80;0.50;;;;;;;26.35;100.00;99161.75;105078;1260;71890;-50
2023/06/02 09:25:32;;;;;;;1.50;0.40;;;;;;;26.40;100.00;99155.07;107051;1257;60679;-50
2023/06/02 09:28:00;;;;;;;2.20;0.40;;;;;;;26.44;100.00;99153.92;106152;1258;60421;-50
2023/06/02 09:30:28;;;;;;;3.70;0.40;;;;;;;26.51;100.00;99153.19;105167;1260;74797;-51
2023/06/02 09:33:01;;;;;;;2.80;0.40;;;;;;;26.57;100.00;99145.34;105274;1256;66850;-52
2023/06/02 09:35:41;;;;;;;5.30;0.50;;;;;;;26.66;100.00;99136.17;105158;1257;73562;-52
2023/06/02 09:38:13;;;;;;;1.00;0.50;;;;;;;26.77;100.00;99137.00;108910;1257;58860;-52
2023/06/02 09:40:41;;;;;;;0.90;0.50;;;;;;;26.84;100.00;99136.91;109119;1254;59367;-53
2023/06/02 09:43:10;;;;;;;0.70;0.40;;;;;;;26.88;100.00;99138.02;109159;1254;72401;-50
2023/06/02 09:45:46;;;;;;;3.70;0.60;;;;;;;26.91;100.00;99139.27;109101;1254;66065;-52
2023/06/02 09:48:18;;;;;;;0.90;0.50;;;;;;;26.93;100.00;99136.85;106237;1254;72679;-51
2023/06/02 09:50:45;;;;;;;0.60;0.40;;;;;;;26.93;100.00;99131.13;105396;1259;60552;-53
2023/06/02 09:53:14;;;;;;;1.60;0.30;;;;;;;26.91;100.00;99126.89;105426;1254;60983;-52
2023/06/02 09:55:41;;;;;;;5.00;0.60;;;;;;;26.86;100.00;99121.73;108334;1254;73727;-51
2023/06/02 09:58:09;;;;;;;0.40;0.40;;;;;;;26.84;100.00;99126.20;105313;1260;66478;-52
2023/06/02 10:00:36;;;;;;;3.60;0.50;;;;;;;26.87;100.00;99121.58;105382;1254;71433;-52
2023/06/02 10:03:04;;;;;;;1.30;0.40;;;;;;;26.90;100.00;99108.29;105347;1259;60530;-51
2023/06/02 10:05:33;;;;;;;2.10;0.50;;;;;;;26.94;100.00;99104.42;109107;1254;58621;-51
2023/06/02 10:08:23;;;;;;;2.30;0.50;;;;;;;27.02;100.00;99101.27;105470;1254;73859;-51
2023/06/02 10:11:22;;;;;;;3.00;0.60;;;;;;;27.10;100.00;99103.33;105545;1259;66599;-50
2023/06/02 10:14:06;;;;;;;2.10;0.40;;;;;;;27.14;100.00;99099.78;109072;1254;71633;-51
2023/06/02 10:16:46;;;;;;;;;;;;;;;27.14;100.00;99101.79;109102;1254;59886;-51
2023/06/02 10:19:39;;;;;;;1.40;0.40;;;;;;;27.11;100.00;99099.73;105927;1254;60466;-51
2023/06/02 10:22:16;;;;;;;2.60;0.40;;;;;;;27.08;100.00;99099.42;105523;1258;74619;-50
2023/06/02 10:25:16;;;;;;;1.10;0.60;;;;;;;27.08;100.00;99089.95;105554;1253;67918;-50
2023/06/02 10:27:44;;;;;;;0.50;0.40;;;;;;;27.13;100.00;99084.58;105666;1254;73035;-50
2023/06/02 10:30:11;;;;;;;2.20;0.50;;;;;;;27.16;100.00;99079.03;105530;1257;60340;-49
2023/06/02 10:32:57;;;;;;;1.00;0.50;;;;;;;27.23;100.00;99072.95;105355;1256;60828;-51
2023/06/02 10:35:57;;;;;;;4.00;0.40;;;;;;;27.33;100.00;99081.00;105509;1255;74268;-50
2023/06/02 10:38:31;;;;;;;2.40;0.40;;;;;;;27.40;100.00;99074.00;105545;1258;65695;-51
2023/06/02 10:40:59;;;;;;;0.70;0.50;;;;;;;27.34;100.00;99071.87;105640;1256;71179;-53
2023/06/02 10:43:27;;;;;;;1.10;0.40;;;;;;;27.26;100.00;99075.83;105757;1259;60392;-53
2023/06/02 10:46:15;;;;;;;0.90;0.40;;;;;;;27.24;100.00;99067.92;105506;1253;60601;-49
2023/06/02 10:48:42;;;;;;;2.60;0.40;;;;;;;27.26;100.00;99075.28;105542;1253;73071;-51
2023/06/02 10:51:10;;;;;;;2.20;0.40;;;;;;;27.31;100.00;99068.94;105444;1254;66334;-52
2023/06/02 10:54:04;;;;;;;4.20;0.40;;;;;;;27.39;100.00;99057.38;105494;1256;71147;-52
2023/06/02 10:56:35;;;;;;;0.90;0.40;;;;;;;27.49;100.00;99045.73;105559;1254;60943;-52
2023/06/02 10:59:03;;;;;;;3.20;0.40;;;;;;;27.57;100.00;99045.20;105544;1254;60537;-51
2023/06/02 11:01:50;;;;;;;1.10;0.40;;;;;;;27.63;100.00;99051.20;105917;1256;74389;-50
2023/06/02 11:04:27;;;;;;;2.40;0.40;;;;;;;27.69;100.00;99044.53;105947;1254;67777;-51
2023/06/02 11:07:23;;;;;;;1.60;0.40;;;;;;;27.75;100.00;99038.79;105623;1254;71501;-51
2023/06/02 11:09:55;;;;;;;0.60;0.50;;;;;;;27.81;100.00;99037.31;105945;1258;60457;-50
2023/06/02 11:12:58;;;;;;;2.90;0.50;;;;;;;27.88;100.00;99033.52;105474;1257;60347;-51
2023/06/02 11:15:26;;;;;;;0.70;0.50;;;;;;;27.97;100.00;99033.38;105255;1254;73448;-52
2023/06/02 11:17:53;;;;;;;2.80;0.50;;;;;;;28.05;100.00;99026.67;105519;1257;66298;-50
2023/06/02 11:20:31;;;;;;;0.60;0.50;;;;;;;28.10;100.00;99030.56;105473;1254;73495;-51
2023/06/02 11:23:02;;;;;;;5.20;0.50;;;;;;;28.16;100.00;99026.50;105506;1253;60761;-53
2023/06/02 11:25:30;;;;;;;0.60;0.40;;;;;;;28.19;100.00;99024.82;105622;1254;61090;-52
2023/06/02 11:27:57;;;;;;;1.00;0.40;;;;;;;28.23;100.00;99024.31;105599;1258;74494;-52
2023/06/02 11:30:25;;;;;;;0.80;0.60;;;;;;;28.26;100.00;99027.61;105714;1254;67327;-52
2023/06/02 11:32:52;;;;;;;2.20;0.50;;;;;;;28.22;100.00;99022.21;105691;1254;70964;-53